createdAt,value
2023-04-02T00:00:38.295Z,7.21
2023-04-02T00:01:38.314Z,7.15
2023-04-02T00:02:38.287Z,7.11
2023-04-02T00:03:38.282Z,7.21
2023-04-02T00:04:38.212Z,7.21
2023-04-02T00:05:38.148Z,7.21
2023-04-02T00:06:38.117Z,7.24
2023-04-02T00:07:38.108Z,7.11
2023-04-02T00:08:38.060Z,7.21
2023-04-02T00:09:38.032Z,7.18
2023-04-02T00:10:38.037Z,7.27
2023-04-02T00:11:37.971Z,7.18
2023-04-02T00:12:37.942Z,7.23
2023-04-02T00:13:37.910Z,7.30
2023-04-02T00:14:37.906Z,7.19
2023-04-02T00:15:37.853Z,7.18
2023-04-02T00:16:37.834Z,7.26
2023-04-02T00:17:37.797Z,7.29
2023-04-02T00:18:37.761Z,7.24
2023-04-02T00:19:37.738Z,7.19
2023-04-02T00:20:37.703Z,7.18
2023-04-02T00:21:38.882Z,7.21
2023-04-02T00:22:37.644Z,7.19
2023-04-02T00:23:37.617Z,7.16
2023-04-02T00:24:37.585Z,7.19
2023-04-02T00:25:37.554Z,7.21
2023-04-02T00:26:37.526Z,7.19
2023-04-02T00:27:37.497Z,7.15
2023-04-02T00:28:37.465Z,7.24
2023-04-02T00:29:37.436Z,7.16
2023-04-02T00:30:37.423Z,7.19
2023-04-02T00:31:37.394Z,7.18
2023-04-02T00:32:37.395Z,7.12
2023-04-02T00:33:37.332Z,7.01
2023-04-02T00:34:37.286Z,7.09
2023-04-02T00:35:37.457Z,7.01
2023-04-02T00:36:37.225Z,6.89
2023-04-02T00:37:37.199Z,6.86
2023-04-02T00:38:37.165Z,6.90
2023-04-02T00:39:37.137Z,6.89
2023-04-02T00:40:37.104Z,6.94
2023-04-02T00:41:37.078Z,6.82
2023-04-02T00:42:37.047Z,6.90
2023-04-02T00:43:37.019Z,6.94
2023-04-02T00:44:36.987Z,6.81
2023-04-02T00:45:37.314Z,6.75
2023-04-02T00:46:36.944Z,6.76
2023-04-02T00:47:36.928Z,6.82
2023-04-02T00:48:36.868Z,6.81
2023-04-02T00:49:36.853Z,6.90
2023-04-02T00:50:36.807Z,6.76
2023-04-02T00:51:36.784Z,6.83
2023-04-02T00:52:36.753Z,6.83
2023-04-02T00:53:36.719Z,6.78
2023-04-02T00:54:36.686Z,6.79
2023-04-02T00:55:36.935Z,6.82
2023-04-02T00:56:36.633Z,6.76
2023-04-02T00:57:36.604Z,6.78
2023-04-02T00:58:36.569Z,6.83
2023-04-02T00:59:36.539Z,6.72
2023-04-02T01:00:36.511Z,6.81
2023-04-02T01:01:36.604Z,6.78
2023-04-02T01:02:36.585Z,6.71
2023-04-02T01:03:37.034Z,6.69
2023-04-02T01:04:36.401Z,6.75
2023-04-02T01:05:36.845Z,6.69
2023-04-02T01:06:36.337Z,6.71
2023-04-02T01:07:36.298Z,6.57
2023-04-02T01:08:36.283Z,6.55
2023-04-02T01:09:36.238Z,6.55
2023-04-02T01:10:36.207Z,6.42
2023-04-02T01:11:36.178Z,6.46
2023-04-02T01:12:36.151Z,6.50
2023-04-02T01:13:36.144Z,6.45
2023-04-02T01:14:36.084Z,6.57
2023-04-02T01:15:36.353Z,6.58
2023-04-02T01:16:36.032Z,6.58
2023-04-02T01:17:36.029Z,6.55
2023-04-02T01:18:36.047Z,6.55
2023-04-02T01:19:35.953Z,6.53
2023-04-02T01:20:35.906Z,6.53
2023-04-02T01:21:35.878Z,6.65
2023-04-02T01:22:35.846Z,6.68
2023-04-02T01:23:35.824Z,6.76
2023-04-02T01:24:35.788Z,6.68
2023-04-02T01:25:35.966Z,6.75
2023-04-02T01:26:35.733Z,6.69
2023-04-02T01:27:35.702Z,6.69
2023-04-02T01:28:35.666Z,6.69
2023-04-02T01:29:35.636Z,6.73
2023-04-02T01:30:35.620Z,6.69
2023-04-02T01:31:35.620Z,6.81
2023-04-02T01:32:35.623Z,6.78
2023-04-02T01:33:35.524Z,6.81
2023-04-02T01:34:35.516Z,6.79
2023-04-02T01:35:35.653Z,6.75
2023-04-02T01:36:35.428Z,6.73
2023-04-02T01:37:35.398Z,6.72
2023-04-02T01:38:35.366Z,6.75
2023-04-02T01:39:35.351Z,6.82
2023-04-02T01:40:35.307Z,6.81
2023-04-02T01:41:35.281Z,6.78
2023-04-02T01:42:35.245Z,6.76
2023-04-02T01:43:35.218Z,6.82
2023-04-02T01:44:35.203Z,6.81
2023-04-02T01:45:35.550Z,6.81
2023-04-02T01:46:35.190Z,6.86
2023-04-02T01:47:35.132Z,6.86
2023-04-02T01:48:35.066Z,6.83
2023-04-02T01:49:35.039Z,6.86
2023-04-02T01:50:35.026Z,6.78
2023-04-02T01:51:34.994Z,6.87
2023-04-02T01:52:34.948Z,6.90
2023-04-02T01:53:34.919Z,6.76
2023-04-02T01:54:34.888Z,6.79
2023-04-02T01:55:35.136Z,6.79
2023-04-02T01:56:34.830Z,6.90
2023-04-02T01:57:34.832Z,6.91
2023-04-02T01:58:34.769Z,6.87
2023-04-02T01:59:34.762Z,6.93
2023-04-02T02:00:34.723Z,6.93
2023-04-02T02:01:34.680Z,6.90
2023-04-02T02:02:34.810Z,6.91
2023-04-02T02:03:34.628Z,6.79
2023-04-02T02:04:34.605Z,6.91
2023-04-02T02:05:34.748Z,6.83
2023-04-02T02:06:34.548Z,6.79
2023-04-02T02:07:34.501Z,6.79
2023-04-02T02:08:34.577Z,6.81
2023-04-02T02:09:34.452Z,6.76
2023-04-02T02:10:34.413Z,6.68
2023-04-02T02:11:34.383Z,6.64
2023-04-02T02:12:34.368Z,6.65
2023-04-02T02:13:34.324Z,6.53
2023-04-02T02:14:34.303Z,6.57
2023-04-02T02:15:34.523Z,6.58
2023-04-02T02:16:34.246Z,6.54
2023-04-02T02:17:34.231Z,6.54
2023-04-02T02:18:34.176Z,6.45
2023-04-02T02:19:34.151Z,6.46
2023-04-02T02:20:34.121Z,6.35
2023-04-02T02:21:34.101Z,6.20
2023-04-02T02:22:34.084Z,6.27
2023-04-02T02:23:34.031Z,6.21
2023-04-02T02:24:34.000Z,6.10
2023-04-02T02:25:34.389Z,6.06
2023-04-02T02:26:33.949Z,6.02
2023-04-02T02:27:33.912Z,6.03
2023-04-02T02:28:33.880Z,6.03
2023-04-02T02:29:33.851Z,6.06
2023-04-02T02:30:33.822Z,6.14
2023-04-02T02:31:33.848Z,6.19
2023-04-02T02:32:33.803Z,6.10
2023-04-02T02:33:33.735Z,6.10
2023-04-02T02:34:33.708Z,6.27
2023-04-02T02:35:33.903Z,6.33
2023-04-02T02:36:33.658Z,6.30
2023-04-02T02:37:33.631Z,6.27
2023-04-02T02:38:33.603Z,6.21
2023-04-02T02:39:33.553Z,6.35
2023-04-02T02:40:33.525Z,6.39
2023-04-02T02:41:33.492Z,6.38
2023-04-02T02:42:33.486Z,6.36
2023-04-02T02:43:33.435Z,6.53
2023-04-02T02:44:33.418Z,6.53
2023-04-02T02:45:33.591Z,6.55
2023-04-02T02:46:33.344Z,6.58
2023-04-02T02:47:33.355Z,6.65
2023-04-02T02:48:33.288Z,6.63
2023-04-02T02:49:33.252Z,6.68
2023-04-02T02:50:33.233Z,6.71
2023-04-02T02:51:33.195Z,6.71
2023-04-02T02:52:33.169Z,6.65
2023-04-02T02:53:33.129Z,6.72
2023-04-02T02:54:33.120Z,6.65
2023-04-02T02:55:33.414Z,6.63
2023-04-02T02:56:33.040Z,6.60
2023-04-02T02:57:33.136Z,6.57
2023-04-02T02:58:32.982Z,6.68
2023-04-02T02:59:32.956Z,6.65
2023-04-02T03:00:32.918Z,6.65
2023-04-02T03:01:32.916Z,6.68
2023-04-02T03:02:33.000Z,6.65
2023-04-02T03:03:33.066Z,6.68
2023-04-02T03:04:32.798Z,6.68
2023-04-02T03:05:32.767Z,6.60
2023-04-02T03:06:32.740Z,6.69
2023-04-02T03:07:32.709Z,6.75
2023-04-02T03:08:32.679Z,6.63
2023-04-02T03:09:32.646Z,6.72
2023-04-02T03:10:32.638Z,6.75
2023-04-02T03:11:32.589Z,6.73
2023-04-02T03:12:32.559Z,6.69
2023-04-02T03:13:32.530Z,6.73
2023-04-02T03:14:32.500Z,6.58
2023-04-02T03:15:32.552Z,6.63
2023-04-02T03:16:32.440Z,6.57
2023-04-02T03:17:32.446Z,6.51
2023-04-02T03:18:32.377Z,6.58
2023-04-02T03:19:32.358Z,6.58
2023-04-02T03:20:32.333Z,6.55
2023-04-02T03:21:32.290Z,6.53
2023-04-02T03:22:32.257Z,6.53
2023-04-02T03:23:32.227Z,6.42
2023-04-02T03:24:32.200Z,6.36
2023-04-02T03:25:32.205Z,6.36
2023-04-02T03:26:32.161Z,6.36
2023-04-02T03:27:32.114Z,6.38
2023-04-02T03:28:32.098Z,6.33
2023-04-02T03:29:32.068Z,6.30
2023-04-02T03:30:32.019Z,6.36
2023-04-02T03:31:31.995Z,6.27
2023-04-02T03:32:32.018Z,6.20
2023-04-02T03:33:31.935Z,6.30
2023-04-02T03:34:31.900Z,6.28
2023-04-02T03:35:31.886Z,6.27
2023-04-02T03:36:31.841Z,6.25
2023-04-02T03:37:31.812Z,6.13
2023-04-02T03:38:31.786Z,6.10
2023-04-02T03:39:31.751Z,6.10
2023-04-02T03:40:31.722Z,6.20
2023-04-02T03:41:31.692Z,6.28
2023-04-02T03:42:31.684Z,6.28
2023-04-02T03:43:31.630Z,6.28
2023-04-02T03:44:31.619Z,6.32
2023-04-02T03:45:31.571Z,6.30
2023-04-02T03:46:31.619Z,6.27
2023-04-02T03:47:31.530Z,6.32
2023-04-02T03:48:31.484Z,6.36
2023-04-02T03:49:31.472Z,6.35
2023-04-02T03:50:31.424Z,6.32
2023-04-02T03:51:31.390Z,6.32
2023-04-02T03:52:31.361Z,6.33
2023-04-02T03:53:31.330Z,6.42
2023-04-02T03:54:31.307Z,6.38
2023-04-02T03:55:31.272Z,6.50
2023-04-02T03:56:31.242Z,6.39
2023-04-02T03:57:31.346Z,6.40
2023-04-02T03:58:31.199Z,6.55
2023-04-02T03:59:31.149Z,6.57
2023-04-02T04:00:31.119Z,6.55
2023-04-02T04:01:31.089Z,6.69
2023-04-02T04:02:31.104Z,6.53
2023-04-02T04:03:31.029Z,6.68
2023-04-02T04:04:31.066Z,6.65
2023-04-02T04:05:30.976Z,6.63
2023-04-02T04:06:30.937Z,6.65
2023-04-02T04:07:30.921Z,6.58
2023-04-02T04:08:30.881Z,6.58
2023-04-02T04:09:30.849Z,6.64
2023-04-02T04:10:30.821Z,6.57
2023-04-02T04:11:30.830Z,6.71
2023-04-02T04:12:30.764Z,6.64
2023-04-02T04:13:30.733Z,6.58
2023-04-02T04:14:30.724Z,6.55
2023-04-02T04:15:30.676Z,6.61
2023-04-02T04:16:30.697Z,6.79
2023-04-02T04:17:30.624Z,6.83
2023-04-02T04:18:30.580Z,6.93
2023-04-02T04:19:30.546Z,6.91
2023-04-02T04:20:30.521Z,6.99
2023-04-02T04:21:30.492Z,6.91
2023-04-02T04:22:30.640Z,6.99
2023-04-02T04:23:30.492Z,6.94
2023-04-02T04:24:30.402Z,6.90
2023-04-02T04:25:30.442Z,6.96
2023-04-02T04:26:30.346Z,6.99
2023-04-02T04:27:30.311Z,6.91
2023-04-02T04:28:30.292Z,6.90
2023-04-02T04:29:30.251Z,6.93
2023-04-02T04:30:30.244Z,6.93
2023-04-02T04:31:30.229Z,6.97
2023-04-02T04:32:30.216Z,6.99
2023-04-02T04:33:30.133Z,6.82
2023-04-02T04:34:30.107Z,6.89
2023-04-02T04:35:30.108Z,6.97
2023-04-02T04:36:30.047Z,6.97
2023-04-02T04:37:30.014Z,6.82
2023-04-02T04:38:29.989Z,6.89
2023-04-02T04:39:29.972Z,6.81
2023-04-02T04:40:29.925Z,6.93
2023-04-02T04:41:29.895Z,6.91
2023-04-02T04:42:29.866Z,6.93
2023-04-02T04:43:29.836Z,6.90
2023-04-02T04:44:29.806Z,6.99
2023-04-02T04:45:29.779Z,6.89
2023-04-02T04:46:29.794Z,7.01
2023-04-02T04:47:29.732Z,6.96
2023-04-02T04:48:29.696Z,7.04
2023-04-02T04:49:29.656Z,6.94
2023-04-02T04:50:29.632Z,6.90
2023-04-02T04:51:29.601Z,7.07
2023-04-02T04:52:29.580Z,6.94
2023-04-02T04:53:29.556Z,7.04
2023-04-02T04:54:29.517Z,7.01
2023-04-02T04:55:29.483Z,7.07
2023-04-02T04:56:29.450Z,6.96
2023-04-02T04:57:29.455Z,7.00
2023-04-02T04:58:29.394Z,7.07
2023-04-02T04:59:29.361Z,6.94
2023-04-02T05:00:29.331Z,6.91
2023-04-02T05:01:29.386Z,6.87
2023-04-02T05:02:29.346Z,6.94
2023-04-02T05:03:29.241Z,6.91
2023-04-02T05:04:29.248Z,6.93
2023-04-02T05:05:29.181Z,6.93
2023-04-02T05:06:29.151Z,6.97
2023-04-02T05:07:29.137Z,6.91
2023-04-02T05:08:29.095Z,6.94
2023-04-02T05:09:29.059Z,6.94
2023-04-02T05:10:29.042Z,6.93
2023-04-02T05:11:29.000Z,6.94
2023-04-02T05:12:28.981Z,7.01
2023-04-02T05:13:28.939Z,7.04
2023-04-02T05:14:28.911Z,7.08
2023-04-02T05:15:28.879Z,7.05
2023-04-02T05:16:28.911Z,7.08
2023-04-02T05:17:28.859Z,7.05
2023-04-02T05:18:28.814Z,7.04
2023-04-02T05:19:28.760Z,7.09
2023-04-02T05:20:28.731Z,6.91
2023-04-02T05:21:28.699Z,6.93
2023-04-02T05:22:28.671Z,7.00
2023-04-02T05:23:28.648Z,7.08
2023-04-02T05:24:28.611Z,7.08
2023-04-02T05:25:28.594Z,7.07
2023-04-02T05:26:28.551Z,7.04
2023-04-02T05:27:28.524Z,7.07
2023-04-02T05:28:28.492Z,6.99
2023-04-02T05:29:28.460Z,6.93
2023-04-02T05:30:28.435Z,7.04
2023-04-02T05:31:28.423Z,7.05
2023-04-02T05:32:28.460Z,7.08
2023-04-02T05:33:28.343Z,7.09
2023-04-02T05:34:28.329Z,7.07
2023-04-02T05:35:28.281Z,7.07
2023-04-02T05:36:28.251Z,7.11
2023-04-02T05:37:28.220Z,7.07
2023-04-02T05:38:28.199Z,7.16
2023-04-02T05:39:28.185Z,7.09
2023-04-02T05:40:28.161Z,7.16
2023-04-02T05:41:28.111Z,7.05
2023-04-02T05:42:28.075Z,7.11
2023-04-02T05:43:28.046Z,7.12
2023-04-02T05:44:28.029Z,7.15
2023-04-02T05:45:27.989Z,7.15
2023-04-02T05:46:28.004Z,7.14
2023-04-02T05:47:28.005Z,7.23
2023-04-02T05:48:27.898Z,7.16
2023-04-02T05:49:27.865Z,7.14
2023-04-02T05:50:27.856Z,7.19
2023-04-02T05:51:27.809Z,7.33
2023-04-02T05:52:27.827Z,7.26
2023-04-02T05:53:27.762Z,7.29
2023-04-02T05:54:27.773Z,7.29
2023-04-02T05:55:27.767Z,7.30
2023-04-02T05:56:27.769Z,7.30
2023-04-02T05:57:41.710Z,7.30
2023-04-02T05:58:35.601Z,7.32
2023-04-02T05:59:27.572Z,7.21
2023-04-02T06:00:27.553Z,7.29
2023-04-02T06:01:27.517Z,7.27
2023-04-02T06:02:27.583Z,7.33
2023-04-02T06:03:27.681Z,7.32
2023-04-02T06:04:27.452Z,7.33
2023-04-02T06:05:27.398Z,7.30
2023-04-02T06:06:27.388Z,7.32
2023-04-02T06:07:27.335Z,7.36
2023-04-02T06:08:27.312Z,7.42
2023-04-02T06:09:27.276Z,7.45
2023-04-02T06:10:27.417Z,7.33
2023-04-02T06:11:27.240Z,7.29
2023-04-02T06:12:27.189Z,7.36
2023-04-02T06:13:27.175Z,7.39
2023-04-02T06:14:27.129Z,7.41
2023-04-02T06:15:27.112Z,7.45
2023-04-02T06:16:27.121Z,7.44
2023-04-02T06:17:27.052Z,7.47
2023-04-02T06:18:27.011Z,7.50
2023-04-02T06:19:26.991Z,7.51
2023-04-02T06:20:26.967Z,7.47
2023-04-02T06:21:26.929Z,7.52
2023-04-02T06:22:26.922Z,7.48
2023-04-02T06:23:26.865Z,7.51
2023-04-02T06:24:26.841Z,7.50
2023-04-02T06:25:26.807Z,7.57
2023-04-02T06:26:26.779Z,7.55
2023-04-02T06:27:26.754Z,7.63
2023-04-02T06:28:26.722Z,7.73
2023-04-02T06:29:26.691Z,7.77
2023-04-02T06:30:26.662Z,7.91
2023-04-02T06:31:26.678Z,7.82
2023-04-02T06:32:26.640Z,8.00
2023-04-02T06:33:26.576Z,7.95
2023-04-02T06:34:26.564Z,7.82
2023-04-02T06:35:26.521Z,7.71
2023-04-02T06:36:26.502Z,7.70
2023-04-02T06:37:26.458Z,7.54
2023-04-02T06:38:26.453Z,7.63
2023-04-02T06:39:26.403Z,7.74
2023-04-02T06:40:26.377Z,7.71
2023-04-02T06:41:26.347Z,7.79
2023-04-02T06:42:26.326Z,7.91
2023-04-02T06:43:26.302Z,8.00
2023-04-02T06:44:26.259Z,8.17
2023-04-02T06:45:26.239Z,8.09
2023-04-02T06:46:26.259Z,8.09
2023-04-02T06:47:26.199Z,8.27
2023-04-02T06:48:26.142Z,8.12
2023-04-02T06:49:26.122Z,8.03
2023-04-02T06:50:26.084Z,8.02
2023-04-02T06:51:26.059Z,8.00
2023-04-02T06:52:26.043Z,7.95
2023-04-02T06:53:26.002Z,7.88
2023-04-02T06:54:25.991Z,8.00
2023-04-02T06:55:26.059Z,7.91
2023-04-02T06:56:25.914Z,7.95
2023-04-02T06:57:25.932Z,7.85
2023-04-02T06:58:25.860Z,7.85
2023-04-02T06:59:25.838Z,8.06
2023-04-02T07:00:25.860Z,8.00
2023-04-02T07:01:25.834Z,8.17
2023-04-02T07:02:25.754Z,8.17
2023-04-02T07:03:25.712Z,8.17
2023-04-02T07:04:25.702Z,8.39
2023-04-02T07:05:25.657Z,8.58
2023-04-02T07:06:25.632Z,8.50
2023-04-02T07:07:25.606Z,8.57
2023-04-02T07:08:25.578Z,8.67
2023-04-02T07:09:25.549Z,8.50
2023-04-02T07:10:25.578Z,8.40
2023-04-02T07:11:25.478Z,8.40
2023-04-02T07:12:25.452Z,8.21
2023-04-02T07:13:25.427Z,8.29
2023-04-02T07:14:25.394Z,8.14
2023-04-02T07:15:25.366Z,8.14
2023-04-02T07:16:25.478Z,8.17
2023-04-02T07:17:25.317Z,8.27
2023-04-02T07:18:25.280Z,8.39
2023-04-02T07:19:25.253Z,8.43
2023-04-02T07:20:25.221Z,8.46
2023-04-02T07:21:25.194Z,8.54
2023-04-02T07:22:25.163Z,8.55
2023-04-02T07:23:25.137Z,8.67
2023-04-02T07:24:25.106Z,8.67
2023-04-02T07:25:25.076Z,8.39
2023-04-02T07:26:25.101Z,8.40
2023-04-02T07:27:25.024Z,8.36
2023-04-02T07:28:25.024Z,8.25
2023-04-02T07:29:24.966Z,8.37
2023-04-02T07:30:24.946Z,8.63
2023-04-02T07:31:24.927Z,8.65
2023-04-02T07:32:24.878Z,8.67
2023-04-02T07:33:24.869Z,8.80
2023-04-02T07:34:24.825Z,8.80
2023-04-02T07:35:24.798Z,8.93
2023-04-02T07:36:24.802Z,9.06
2023-04-02T07:37:24.737Z,9.20
2023-04-02T07:38:24.722Z,9.24
2023-04-02T07:39:24.684Z,9.42
2023-04-02T07:40:24.656Z,9.48
2023-04-02T07:41:24.629Z,9.41
2023-04-02T07:42:24.614Z,9.40
2023-04-02T07:43:24.579Z,9.65
2023-04-02T07:44:24.539Z,9.37
2023-04-02T07:45:24.517Z,9.12
2023-04-02T07:46:24.528Z,8.98
2023-04-02T07:47:24.461Z,9.16
2023-04-02T07:48:24.430Z,9.20
2023-04-02T07:49:24.403Z,9.16
2023-04-02T07:50:24.374Z,9.35
2023-04-02T07:51:24.415Z,9.42
2023-04-02T07:52:24.320Z,9.16
2023-04-02T07:53:24.289Z,9.30
2023-04-02T07:54:24.261Z,9.23
2023-04-02T07:55:24.240Z,9.26
2023-04-02T07:56:24.231Z,9.23
2023-04-02T07:57:24.250Z,9.41
2023-04-02T07:58:24.170Z,9.55
2023-04-02T07:59:24.124Z,9.53
2023-04-02T08:00:24.097Z,9.42
2023-04-02T08:01:24.076Z,9.53
2023-04-02T08:02:24.104Z,9.48
2023-04-02T08:03:24.171Z,9.37
2023-04-02T08:04:24.030Z,9.27
2023-04-02T08:05:23.966Z,9.16
2023-04-02T08:06:23.934Z,9.19
2023-04-02T08:07:23.937Z,9.03
2023-04-02T08:08:23.878Z,9.12
2023-04-02T08:09:23.849Z,9.19
2023-04-02T08:10:23.832Z,9.22
2023-04-02T08:11:23.797Z,9.30
2023-04-02T08:12:23.767Z,9.44
2023-04-02T08:13:23.740Z,9.56
2023-04-02T08:14:23.728Z,9.22
2023-04-02T08:15:23.686Z,9.16
2023-04-02T08:16:23.668Z,9.20
2023-04-02T08:17:23.679Z,9.34
2023-04-02T08:18:23.638Z,9.30
2023-04-02T08:19:23.578Z,9.38
2023-04-02T08:20:23.549Z,9.38
2023-04-02T08:21:23.528Z,9.35
2023-04-02T08:22:23.491Z,9.24
2023-04-02T08:23:23.466Z,9.30
2023-04-02T08:24:23.438Z,9.41
2023-04-02T08:25:23.415Z,9.24
2023-04-02T08:26:23.393Z,9.41
2023-04-02T08:27:23.373Z,9.41
2023-04-02T08:28:23.328Z,9.17
2023-04-02T08:29:23.303Z,9.27
2023-04-02T08:30:23.296Z,9.42
2023-04-02T08:31:23.353Z,9.40
2023-04-02T08:32:23.225Z,9.38
2023-04-02T08:33:23.191Z,9.37
2023-04-02T08:34:23.162Z,9.24
2023-04-02T08:35:23.136Z,9.20
2023-04-02T08:36:23.138Z,9.26
2023-04-02T08:37:23.085Z,9.31
2023-04-02T08:38:23.055Z,9.35
2023-04-02T08:39:23.034Z,9.31
2023-04-02T08:40:23.008Z,9.27
2023-04-02T08:41:22.969Z,9.26
2023-04-02T08:42:22.950Z,9.53
2023-04-02T08:43:23.662Z,9.63
2023-04-02T08:44:22.889Z,9.65
2023-04-02T08:45:24.918Z,9.98
2023-04-02T08:46:22.894Z,10.14
2023-04-02T08:47:22.844Z,10.11
2023-04-02T08:48:22.776Z,9.96
2023-04-02T08:49:22.749Z,10.01
2023-04-02T08:50:22.724Z,9.99
2023-04-02T08:51:22.711Z,9.68
2023-04-02T08:52:22.671Z,9.58
2023-04-02T08:53:22.651Z,9.63
2023-04-02T08:54:22.612Z,9.70
2023-04-02T08:55:22.583Z,9.73
2023-04-02T08:56:22.569Z,9.70
2023-04-02T08:57:22.601Z,9.52
2023-04-02T08:58:22.501Z,9.48
2023-04-02T08:59:22.476Z,9.41
2023-04-02T09:00:22.447Z,9.42
2023-04-02T09:01:22.434Z,9.67
2023-04-02T09:02:22.456Z,9.85
2023-04-02T09:03:22.367Z,9.77
2023-04-02T09:04:22.361Z,9.68
2023-04-02T09:05:22.312Z,9.74
2023-04-02T09:06:22.283Z,9.98
2023-04-02T09:07:22.253Z,9.86
2023-04-02T09:08:22.220Z,9.85
2023-04-02T09:09:22.196Z,9.92
2023-04-02T09:10:22.167Z,9.92
2023-04-02T09:11:22.156Z,10.04
2023-04-02T09:12:22.115Z,9.99
2023-04-02T09:13:22.085Z,9.65
2023-04-02T09:14:22.058Z,9.55
2023-04-02T09:15:22.030Z,9.62
2023-04-02T09:16:22.043Z,9.58
2023-04-02T09:17:21.975Z,9.73
2023-04-02T09:18:21.999Z,9.88
2023-04-02T09:19:21.964Z,10.04
2023-04-02T09:20:21.903Z,10.11
2023-04-02T09:21:21.886Z,10.13
2023-04-02T09:22:21.855Z,9.95
2023-04-02T09:23:21.811Z,10.17
2023-04-02T09:24:21.804Z,10.34
2023-04-02T09:25:21.764Z,10.52
2023-04-02T09:26:21.732Z,10.52
2023-04-02T09:27:21.713Z,10.07
2023-04-02T09:28:21.686Z,10.01
2023-04-02T09:29:21.656Z,9.96
2023-04-02T09:30:21.634Z,10.26
2023-04-02T09:31:21.618Z,10.36
2023-04-02T09:32:21.570Z,10.43
2023-04-02T09:33:21.545Z,10.63
2023-04-02T09:34:21.534Z,10.58
2023-04-02T09:35:26.514Z,10.42
2023-04-02T09:36:21.491Z,10.44
2023-04-02T09:37:21.434Z,10.43
2023-04-02T09:38:21.409Z,10.55
2023-04-02T09:39:21.387Z,10.42
2023-04-02T09:40:21.353Z,10.25
2023-04-02T09:41:21.327Z,10.06
2023-04-02T09:42:21.299Z,10.14
2023-04-02T09:43:21.287Z,10.22
2023-04-02T09:44:21.271Z,10.26
2023-04-02T09:45:21.233Z,10.20
2023-04-02T09:46:21.254Z,10.20
2023-04-02T09:47:21.176Z,10.44
2023-04-02T09:48:21.138Z,10.44
2023-04-02T09:49:21.111Z,10.49
2023-04-02T09:50:21.106Z,10.06
2023-04-02T09:51:21.059Z,9.93
2023-04-02T09:52:21.053Z,10.01
2023-04-02T09:53:21.003Z,10.02
2023-04-02T09:54:20.976Z,10.01
2023-04-02T09:55:20.952Z,10.01
2023-04-02T09:56:20.921Z,10.02
2023-04-02T09:57:20.929Z,10.17
2023-04-02T09:58:20.865Z,9.99
2023-04-02T09:59:20.840Z,10.13
2023-04-02T10:00:31.611Z,10.28
2023-04-02T10:01:20.843Z,10.25
2023-04-02T10:02:20.765Z,10.10
2023-04-02T10:03:20.733Z,10.17
2023-04-02T10:04:20.738Z,10.07
2023-04-02T10:05:30.164Z,10.25
2023-04-02T10:06:20.667Z,10.20
2023-04-02T10:07:20.635Z,10.38
2023-04-02T10:08:20.598Z,10.46
2023-04-02T10:09:20.571Z,10.46
2023-04-02T10:10:20.542Z,10.73
2023-04-02T10:11:20.514Z,10.78
2023-04-02T10:12:20.488Z,11.09
2023-04-02T10:13:20.465Z,11.28
2023-04-02T10:14:20.433Z,11.30
2023-04-02T10:15:20.402Z,11.64
2023-04-02T10:16:20.398Z,11.51
2023-04-02T10:17:20.399Z,11.70
2023-04-02T10:18:20.322Z,11.78
2023-04-02T10:19:20.298Z,11.79
2023-04-02T10:20:20.271Z,11.85
2023-04-02T10:21:20.244Z,12.03
2023-04-02T10:22:20.238Z,11.49
2023-04-02T10:23:20.196Z,10.91
2023-04-02T10:24:20.166Z,10.70
2023-04-02T10:25:20.142Z,10.70
2023-04-02T10:26:20.118Z,10.98
2023-04-02T10:27:20.091Z,11.24
2023-04-02T10:28:20.067Z,11.38
2023-04-02T10:29:20.034Z,11.11
2023-04-02T10:30:20.009Z,11.23
2023-04-02T10:31:20.018Z,11.01
2023-04-02T10:32:19.971Z,10.86
2023-04-02T10:33:19.936Z,10.81
2023-04-02T10:34:19.905Z,10.95
2023-04-02T10:35:19.879Z,10.91
2023-04-02T10:36:19.852Z,10.86
2023-04-02T10:37:19.830Z,10.78
2023-04-02T10:38:19.830Z,10.73
2023-04-02T10:39:19.775Z,10.87
2023-04-02T10:40:19.766Z,10.84
2023-04-02T10:41:19.728Z,10.99
2023-04-02T10:42:19.696Z,11.20
2023-04-02T10:43:19.671Z,11.20
2023-04-02T10:44:20.748Z,10.95
2023-04-02T10:45:19.620Z,10.91
2023-04-02T10:46:19.618Z,10.94
2023-04-02T10:47:19.577Z,10.84
2023-04-02T10:48:19.542Z,10.73
2023-04-02T10:49:19.536Z,10.72
2023-04-02T10:50:19.486Z,10.76
2023-04-02T10:51:19.462Z,10.76
2023-04-02T10:52:19.433Z,10.88
2023-04-02T10:53:19.413Z,10.83
2023-04-02T10:54:19.402Z,10.86
2023-04-02T10:55:19.357Z,10.93
2023-04-02T10:56:19.329Z,11.05
2023-04-02T10:57:19.353Z,10.86
2023-04-02T10:58:19.276Z,10.95
2023-04-02T10:59:19.250Z,11.13
2023-04-02T11:00:19.253Z,11.27
2023-04-02T11:01:19.220Z,11.38
2023-04-02T11:02:19.200Z,11.49
2023-04-02T11:03:19.265Z,11.51
2023-04-02T11:04:19.125Z,11.57
2023-04-02T11:05:19.088Z,11.46
2023-04-02T11:06:19.079Z,11.41
2023-04-02T11:07:19.036Z,11.46
2023-04-02T11:08:19.032Z,11.44
2023-04-02T11:09:19.000Z,11.45
2023-04-02T11:10:18.981Z,11.21
2023-04-02T11:11:18.933Z,11.13
2023-04-02T11:12:18.905Z,11.19
2023-04-02T11:13:18.877Z,11.46
2023-04-02T11:14:18.852Z,11.59
2023-04-02T11:15:18.827Z,11.53
2023-04-02T11:16:18.831Z,11.66
2023-04-02T11:17:18.772Z,11.93
2023-04-02T11:18:18.746Z,12.12
2023-04-02T11:19:18.733Z,12.19
2023-04-02T11:20:18.702Z,12.25
2023-04-02T11:21:18.671Z,12.29
2023-04-02T11:22:18.642Z,12.18
2023-04-02T11:23:18.615Z,11.81
2023-04-02T11:24:18.590Z,11.66
2023-04-02T11:25:18.560Z,11.49
2023-04-02T11:26:18.558Z,11.53
2023-04-02T11:27:18.509Z,11.88
2023-04-02T11:28:18.484Z,12.26
2023-04-02T11:29:18.457Z,12.33
2023-04-02T11:30:18.440Z,12.44
2023-04-02T11:31:18.442Z,12.67
2023-04-02T11:32:18.380Z,12.84
2023-04-02T11:33:20.847Z,12.87
2023-04-02T11:34:18.328Z,13.07
2023-04-02T11:35:18.305Z,13.17
2023-04-02T11:36:18.325Z,13.48
2023-04-02T11:37:18.251Z,13.55
2023-04-02T11:38:18.228Z,13.31
2023-04-02T11:39:18.201Z,12.99
2023-04-02T11:40:18.197Z,12.76
2023-04-02T11:41:18.149Z,12.66
2023-04-02T11:42:18.162Z,12.74
2023-04-02T11:43:18.098Z,12.67
2023-04-02T11:44:18.073Z,12.88
2023-04-02T11:45:20.186Z,12.94
2023-04-02T11:46:18.049Z,12.88
2023-04-02T11:47:18.000Z,12.80
2023-04-02T11:48:17.972Z,12.43
2023-04-02T11:49:17.947Z,12.63
2023-04-02T11:50:17.921Z,12.52
2023-04-02T11:51:20.744Z,12.19
2023-04-02T11:52:17.873Z,12.03
2023-04-02T11:53:17.845Z,12.13
2023-04-02T11:54:17.820Z,11.97
2023-04-02T11:55:17.795Z,11.75
2023-04-02T11:56:17.771Z,11.64
2023-04-02T11:57:19.022Z,11.59
2023-04-02T11:58:17.741Z,11.51
2023-04-02T11:59:17.689Z,11.56
2023-04-02T12:00:18.269Z,11.63
2023-04-02T12:01:17.638Z,11.48
2023-04-02T12:02:17.674Z,11.46
2023-04-02T12:03:17.615Z,11.44
2023-04-02T12:04:17.582Z,11.54
2023-04-02T12:05:17.636Z,11.70
2023-04-02T12:06:17.513Z,11.66
2023-04-02T12:07:17.498Z,11.81
2023-04-02T12:08:17.473Z,11.74
2023-04-02T12:09:17.434Z,11.49
2023-04-02T12:10:17.452Z,11.31
2023-04-02T12:11:17.381Z,11.38
2023-04-02T12:12:17.368Z,11.24
2023-04-02T12:13:17.327Z,11.38
2023-04-02T12:14:17.322Z,11.41
2023-04-02T12:15:17.275Z,11.53
2023-04-02T12:16:17.278Z,11.26
2023-04-02T12:17:17.253Z,11.26
2023-04-02T12:18:17.206Z,11.30
2023-04-02T12:19:17.168Z,11.64
2023-04-02T12:20:17.143Z,11.60
2023-04-02T12:21:17.116Z,11.51
2023-04-02T12:22:17.090Z,11.49
2023-04-02T12:23:17.083Z,11.30
2023-04-02T12:24:17.045Z,11.38
2023-04-02T12:25:17.011Z,11.33
2023-04-02T12:26:16.989Z,11.42
2023-04-02T12:27:16.979Z,11.27
2023-04-02T12:28:16.934Z,11.36
2023-04-02T12:29:16.903Z,11.35
2023-04-02T12:30:16.900Z,11.19
2023-04-02T12:31:16.925Z,11.16
2023-04-02T12:32:16.829Z,11.21
2023-04-02T12:33:16.799Z,11.30
2023-04-02T12:34:16.772Z,11.45
2023-04-02T12:35:16.747Z,11.44
2023-04-02T12:36:16.804Z,11.28
2023-04-02T12:37:16.693Z,11.20
2023-04-02T12:38:16.670Z,11.27
2023-04-02T12:39:16.662Z,11.39
2023-04-02T12:40:16.625Z,11.56
2023-04-02T12:41:16.594Z,11.51
2023-04-02T12:42:16.562Z,11.31
2023-04-02T12:43:16.532Z,11.23
2023-04-02T12:44:16.510Z,11.27
2023-04-02T12:45:16.481Z,11.44
2023-04-02T12:46:16.555Z,11.36
2023-04-02T12:47:16.432Z,11.36
2023-04-02T12:48:16.404Z,11.39
2023-04-02T12:49:16.376Z,11.49
2023-04-02T12:50:16.347Z,11.62
2023-04-02T12:51:17.552Z,11.82
2023-04-02T12:52:16.312Z,11.69
2023-04-02T12:53:16.267Z,11.64
2023-04-02T12:54:16.239Z,11.75
2023-04-02T12:55:16.214Z,11.85
2023-04-02T12:56:16.190Z,11.94
2023-04-02T12:57:16.186Z,11.98
2023-04-02T12:58:16.134Z,12.21
2023-04-02T12:59:16.107Z,12.33
2023-04-02T13:00:16.089Z,12.26
2023-04-02T13:01:16.074Z,12.46
2023-04-02T13:02:16.052Z,12.62
2023-04-02T13:03:16.075Z,12.54
2023-04-02T13:04:16.035Z,12.71
2023-04-02T13:05:15.950Z,12.71
2023-04-02T13:06:15.930Z,12.52
2023-04-02T13:07:15.899Z,12.49
2023-04-02T13:08:15.875Z,12.37
2023-04-02T13:09:15.846Z,12.29
2023-04-02T13:10:15.832Z,12.18